createdAt,value
2023-01-21T00:00:02.222Z,1
2023-01-21T00:05:02.162Z,1
2023-01-21T00:10:02.069Z,1
2023-01-21T00:15:02.053Z,1
2023-01-21T00:20:01.967Z,1
2023-01-21T00:25:02.264Z,1
2023-01-21T00:30:02.415Z,1
2023-01-21T00:35:02.519Z,1
2023-01-21T00:40:02.504Z,1
2023-01-21T00:45:02.513Z,1
2023-01-21T00:50:02.479Z,1
2023-01-21T00:55:02.760Z,1
2023-01-21T01:00:03.023Z,1
2023-01-21T01:05:02.742Z,1
2023-01-21T01:10:02.759Z,1
2023-01-21T01:15:04.251Z,1
2023-01-21T01:20:02.151Z,1
2023-01-21T01:25:02.434Z,1
2023-01-21T01:30:02.606Z,1
2023-01-21T01:35:02.788Z,1
2023-01-21T01:40:03.131Z,1
2023-01-21T01:45:02.571Z,1
2023-01-21T01:50:02.932Z,1
2023-01-21T01:55:01.843Z,1
2023-01-21T02:00:02.861Z,1
2023-01-21T02:05:02.772Z,1
2023-01-21T02:10:02.661Z,1
2023-01-21T02:15:03.081Z,1
2023-01-21T02:20:11.989Z,1
2023-01-21T02:25:01.830Z,1
2023-01-21T02:30:02.966Z,1
2023-01-21T02:35:01.928Z,1
2023-01-21T02:40:04.681Z,1
2023-01-21T02:45:02.598Z,1
2023-01-21T02:50:03.161Z,1
2023-01-21T02:55:02.292Z,1
2023-01-21T03:00:02.196Z,1
2023-01-21T03:05:02.273Z,1
2023-01-21T03:10:02.332Z,1
2023-01-21T03:15:06.048Z,1
2023-01-21T03:20:02.184Z,1
2023-01-21T03:25:02.144Z,1
2023-01-21T03:30:02.179Z,1
2023-01-21T03:35:02.798Z,1
2023-01-21T03:40:02.906Z,1
2023-01-21T03:45:03.074Z,1
2023-01-21T03:50:02.065Z,1
2023-01-21T03:55:03.335Z,1
2023-01-21T04:00:02.977Z,1
2023-01-21T04:05:02.038Z,1
2023-01-21T04:10:02.013Z,1
2023-01-21T04:15:05.181Z,1
2023-01-21T04:20:02.389Z,1
2023-01-21T04:25:02.515Z,1
2023-01-21T04:30:02.500Z,1
2023-01-21T04:35:02.419Z,1
2023-01-21T04:40:02.301Z,1
2023-01-21T04:45:02.616Z,1
2023-01-21T04:50:02.603Z,1
2023-01-21T04:55:03.065Z,1
2023-01-21T05:00:02.068Z,1
2023-01-21T05:05:01.943Z,1
2023-01-21T05:10:01.934Z,1
2023-01-21T05:15:05.364Z,1
2023-01-21T05:20:02.949Z,1
2023-01-21T05:25:02.468Z,1
2023-01-21T05:30:02.809Z,1
2023-01-21T05:35:03.910Z,1
2023-01-21T05:40:02.945Z,1
2023-01-21T05:45:01.844Z,1
2023-01-21T05:50:02.814Z,1
2023-01-21T05:55:03.319Z,1
2023-01-21T06:00:02.304Z,1
2023-01-21T06:05:03.398Z,1
2023-01-21T06:10:02.685Z,1
2023-01-21T06:15:02.614Z,1
2023-01-21T06:20:02.816Z,1
2023-01-21T06:25:02.748Z,1
2023-01-21T06:30:03.222Z,1
2023-01-21T06:35:02.252Z,1
2023-01-21T06:40:03.152Z,1
2023-01-21T06:45:02.678Z,1
2023-01-21T06:50:02.788Z,2
2023-01-21T06:55:02.706Z,2
2023-01-21T07:00:02.868Z,6
2023-01-21T07:05:02.828Z,6
2023-01-21T07:10:02.908Z,23
2023-01-21T07:15:03.159Z,35
2023-01-21T07:20:02.310Z,35
2023-01-21T07:25:02.278Z,64
2023-01-21T07:30:02.201Z,64
2023-01-21T07:35:02.396Z,121
2023-01-21T07:40:02.335Z,121
2023-01-21T07:45:02.285Z,373
2023-01-21T07:50:02.137Z,373
2023-01-21T07:55:02.161Z,1000
2023-01-21T08:00:02.695Z,1000
2023-01-21T08:05:03.153Z,1000
2023-01-21T08:10:02.063Z,1000
2023-01-21T08:15:02.206Z,1000
2023-01-21T08:20:02.127Z,1000
2023-01-21T08:25:03.097Z,1000
2023-01-21T08:30:02.098Z,1000
2023-01-21T08:35:02.039Z,1000
2023-01-21T08:40:01.983Z,1000
2023-01-21T08:45:02.151Z,1000
2023-01-21T08:50:02.775Z,2000
2023-01-21T08:55:02.833Z,2000
2023-01-21T09:00:03.228Z,1000
2023-01-21T09:05:03.651Z,1000
2023-01-21T09:10:03.861Z,1000
2023-01-21T09:15:03.482Z,1000
2023-01-21T09:20:02.532Z,9000
2023-01-21T09:25:02.810Z,9000
2023-01-21T09:30:02.694Z,5000
2023-01-21T09:35:02.758Z,5000
2023-01-21T09:40:02.657Z,5000
2023-01-21T09:45:02.869Z,5000
2023-01-21T09:50:12.718Z,5000
2023-01-21T09:55:02.624Z,5000
2023-01-21T10:00:02.745Z,47000
2023-01-21T10:05:02.611Z,47000
2023-01-21T10:10:02.564Z,59000
2023-01-21T10:15:09.988Z,55000
2023-01-21T10:20:01.962Z,51000
2023-01-21T10:25:01.829Z,51000
2023-01-21T10:30:02.740Z,44000
2023-01-21T10:35:02.656Z,44000
2023-01-21T10:40:02.674Z,49000
2023-01-21T10:45:02.552Z,49000
2023-01-21T10:50:02.590Z,49000
2023-01-21T10:55:02.520Z,49000
2023-01-21T11:00:02.347Z,33000
2023-01-21T11:05:02.442Z,33000
2023-01-21T11:10:02.521Z,25000
2023-01-21T11:15:02.513Z,25000
2023-01-21T11:20:02.394Z,45000
2023-01-21T11:25:02.321Z,45000
2023-01-21T11:30:02.267Z,53000
2023-01-21T11:35:02.332Z,53000
2023-01-21T11:40:02.432Z,47000
2023-01-21T11:45:02.389Z,47000
2023-01-21T11:50:02.303Z,21000
2023-01-21T11:55:02.204Z,21000
2023-01-21T12:00:02.154Z,11000
2023-01-21T12:05:02.192Z,11000
2023-01-21T12:10:02.140Z,11000
2023-01-21T12:15:12.117Z,9000
2023-01-21T12:20:02.123Z,9000
2023-01-21T12:25:02.078Z,8000
2023-01-21T12:30:02.076Z,8000
2023-01-21T12:35:01.966Z,9000
2023-01-21T12:40:01.927Z,9000
2023-01-21T12:45:02.835Z,6000
2023-01-21T12:50:02.795Z,6000
2023-01-21T12:55:02.726Z,7000
2023-01-21T13:00:02.620Z,7000
2023-01-21T13:05:02.645Z,7000
2023-01-21T13:10:07.588Z,7000
2023-01-21T13:15:12.544Z,7000
2023-01-21T13:20:02.487Z,7000
2023-01-21T13:25:02.452Z,6000
2023-01-21T13:30:02.324Z,6000
2023-01-21T13:35:02.298Z,3000
2023-01-21T13:40:12.183Z,3000
2023-01-21T13:45:02.146Z,3000
2023-01-21T13:50:02.086Z,3000
2023-01-21T13:55:02.038Z,3000
2023-01-21T14:00:01.959Z,4000
2023-01-21T14:05:01.902Z,4000
2023-01-21T14:10:02.961Z,3000
2023-01-21T14:15:01.810Z,3000
2023-01-21T14:20:02.779Z,2000
2023-01-21T14:25:02.759Z,2000
2023-01-21T14:30:02.798Z,3000
2023-01-21T14:35:12.646Z,3000
2023-01-21T14:40:02.681Z,3000
2023-01-21T14:45:02.670Z,3000
2023-01-21T14:50:02.531Z,3000
2023-01-21T14:55:02.489Z,3000
2023-01-21T15:00:02.405Z,3000
2023-01-21T15:05:02.391Z,3000
2023-01-21T15:10:02.397Z,3000
2023-01-21T15:15:02.708Z,3000
2023-01-21T15:20:02.637Z,834
2023-01-21T15:25:02.595Z,834
2023-01-21T15:30:02.587Z,334
2023-01-21T15:35:02.452Z,283
2023-01-21T15:40:02.375Z,147
2023-01-21T15:45:02.374Z,175
2023-01-21T15:50:02.381Z,305
2023-01-21T15:55:12.246Z,290
2023-01-21T16:00:02.230Z,73
2023-01-21T16:05:02.139Z,73
2023-01-21T16:10:02.065Z,62
2023-01-21T16:15:02.045Z,62
2023-01-21T16:20:02.196Z,55
2023-01-21T16:25:02.201Z,55
2023-01-21T16:30:02.128Z,31
2023-01-21T16:35:02.032Z,14
2023-01-21T16:40:01.941Z,14
2023-01-21T16:45:02.014Z,4
2023-01-21T16:50:01.933Z,4
2023-01-21T16:55:02.892Z,1
2023-01-21T17:00:03.039Z,1
2023-01-21T17:05:01.970Z,1
2023-01-21T17:10:11.877Z,1
2023-01-21T17:15:02.801Z,1
2023-01-21T17:20:02.758Z,1
2023-01-21T17:25:02.736Z,1
2023-01-21T17:30:02.591Z,1
2023-01-21T17:35:02.602Z,1
2023-01-21T17:40:02.573Z,1
2023-01-21T17:45:02.523Z,1
2023-01-21T17:50:02.492Z,1
2023-01-21T17:55:02.435Z,1
2023-01-21T18:00:02.625Z,1
2023-01-21T18:05:02.538Z,1
2023-01-21T18:10:02.609Z,1
2023-01-21T18:15:02.753Z,1
2023-01-21T18:20:02.717Z,1
2023-01-21T18:25:02.687Z,1
2023-01-21T18:30:02.540Z,1
2023-01-21T18:35:02.591Z,1
2023-01-21T18:40:02.587Z,1
2023-01-21T18:45:02.908Z,1
2023-01-21T18:50:02.965Z,1
2023-01-21T18:55:02.031Z,1
2023-01-21T19:00:02.163Z,1
2023-01-21T19:05:02.128Z,1
2023-01-21T19:10:02.007Z,1
2023-01-21T19:15:02.170Z,1
2023-01-21T19:20:02.114Z,1
2023-01-21T19:25:02.005Z,1
2023-01-21T19:30:02.369Z,1
2023-01-21T19:35:02.271Z,1
2023-01-21T19:40:02.302Z,1
2023-01-21T19:45:02.255Z,1
2023-01-21T19:50:02.203Z,1
2023-01-21T19:55:02.608Z,1
2023-01-21T20:00:02.528Z,1
2023-01-21T20:05:02.759Z,1
2023-01-21T20:15:01.908Z,1
2023-01-21T20:20:02.821Z,1
2023-01-21T20:25:02.921Z,1
2023-01-21T20:30:15.332Z,1
2023-01-21T20:35:02.161Z,1
2023-01-21T20:40:02.213Z,1
2023-01-21T20:45:02.211Z,1
2023-01-21T20:50:02.184Z,1
2023-01-21T20:55:02.138Z,1
2023-01-21T21:00:01.991Z,1
2023-01-21T21:05:01.862Z,1
2023-01-21T21:10:02.769Z,1
2023-01-21T21:15:03.046Z,1
2023-01-21T21:20:01.950Z,1
2023-01-21T21:25:01.914Z,1
2023-01-21T21:30:02.826Z,1
2023-01-21T21:35:02.934Z,1
2023-01-21T21:40:01.880Z,1
2023-01-21T21:45:02.933Z,1
2023-01-21T21:50:02.851Z,1
2023-01-21T21:55:02.773Z,1
2023-01-21T22:00:02.726Z,1
2023-01-21T22:05:02.901Z,1
2023-01-21T22:10:02.928Z,1
2023-01-21T22:15:02.975Z,1
2023-01-21T22:20:02.185Z,1
2023-01-21T22:25:02.061Z,1
2023-01-21T22:30:02.164Z,1
2023-01-21T22:35:02.155Z,1
2023-01-21T22:40:02.168Z,1
2023-01-21T22:45:02.117Z,1
2023-01-21T22:50:02.331Z,1
2023-01-21T22:55:02.247Z,1
2023-01-21T23:00:02.645Z,1
2023-01-21T23:05:02.673Z,1
2023-01-21T23:10:03.096Z,1
2023-01-21T23:15:01.997Z,1
2023-01-21T23:20:01.994Z,1
2023-01-21T23:25:01.859Z,1
2023-01-21T23:30:02.847Z,1
2023-01-21T23:35:02.891Z,1
2023-01-21T23:40:03.064Z,1
2023-01-21T23:45:02.106Z,1
2023-01-21T23:50:02.087Z,1
2023-01-21T23:55:01.989Z,1
